Time;durP1;ratioP1;P1;durP2;ratioP2;P2;SDS_P1;SDS_P2;PMS_P1;PMS_P2;Temp;Humidity;BMP_temperature;BMP_pressure;BME280_temperature;BME280_humidity;BME280_pressure;Samples;Min_cycle;Max_cycle;Signal;HPM_P1;HPM_P2
2022/03/30 00:01:36;;;;;;;14.88;7.53;;;9.30;99.90;;;;;;6192319;23;20470;-88
2022/03/30 00:04:08;;;;;;;13.95;6.63;;;9.30;99.90;;;;;;6216711;23;20063;-88
2022/03/30 00:06:35;;;;;;;13.63;6.68;;;9.30;99.90;;;;;;6217032;23;20027;-87
2022/03/30 00:09:02;;;;;;;16.23;7.28;;;9.30;99.90;;;;;;6216591;23;20044;-89
2022/03/30 00:11:29;;;;;;;16.40;6.20;;;9.30;99.90;;;;;;6192237;23;20020;-88
2022/03/30 00:13:58;;;;;;;14.07;6.18;;;9.30;99.90;;;;;;6192880;23;20055;-88
2022/03/30 00:16:29;;;;;;;11.43;6.60;;;9.20;99.90;;;;;;6216313;23;20016;-88
2022/03/30 00:18:56;;;;;;;12.15;6.90;;;9.20;99.90;;;;;;6243331;23;20016;-88
2022/03/30 00:21:23;;;;;;;11.45;6.22;;;9.20;99.90;;;;;;6216852;23;20431;-89
2022/03/30 00:23:52;;;;;;;15.75;7.22;;;9.20;99.90;;;;;;6216632;23;20019;-87
2022/03/30 00:26:19;;;;;;;11.95;6.32;;;9.20;99.90;;;;;;6192456;23;20016;-87
2022/03/30 00:28:49;;;;;;;9.07;5.63;;;9.20;99.90;;;;;;6216969;23;20651;-88
2022/03/30 00:31:18;;;;;;;16.63;6.32;;;9.20;99.90;;;;;;6216876;23;20086;-88
2022/03/30 00:33:46;;;;;;;14.10;6.93;;;9.20;99.90;;;;;;6217111;23;20467;-87
2022/03/30 00:36:14;;;;;;;12.02;6.43;;;9.10;99.90;;;;;;6243790;23;20020;-88
2022/03/30 00:38:44;;;;;;;14.23;6.47;;;9.20;99.90;;;;;;6244072;23;20012;-88
2022/03/30 00:41:14;;;;;;;10.95;5.45;;;9.10;99.90;;;;;;6244265;23;20020;-89
2022/03/30 00:43:44;;;;;;;12.93;6.50;;;9.10;99.90;;;;;;6245416;23;20051;-88
2022/03/30 00:46:12;;;;;;;11.82;5.63;;;9.10;99.90;;;;;;6219018;23;20035;-89
2022/03/30 00:48:45;;;;;;;10.43;5.55;;;9.10;99.90;;;;;;6219728;23;20015;-87
2022/03/30 00:51:17;;;;;;;14.30;5.78;;;9.10;99.90;;;;;;6218418;23;20447;-88
2022/03/30 00:53:48;;;;;;;10.95;5.68;;;9.10;99.90;;;;;;6218266;23;20020;-88
2022/03/30 00:56:18;;;;;;;12.52;6.07;;;9.10;99.90;;;;;;6219701;23;20024;-88
2022/03/30 00:58:49;;;;;;;13.85;5.53;;;9.10;99.90;;;;;;6218269;23;20024;-88
2022/03/30 01:01:16;;;;;;;11.90;6.20;;;9.10;99.90;;;;;;6217947;23;20024;-88
2022/03/30 01:03:47;;;;;;;11.35;6.43;;;9.10;99.90;;;;;;6194620;23;20050;-87
2022/03/30 01:06:16;;;;;;;12.95;6.13;;;9.00;99.90;;;;;;6219326;23;20431;-90
2022/03/30 01:08:46;;;;;;;11.80;4.85;;;9.10;99.90;;;;;;6218291;23;20020;-88
2022/03/30 01:11:15;;;;;;;12.25;5.82;;;9.00;99.90;;;;;;6218199;23;20020;-88
2022/03/30 01:13:43;;;;;;;11.48;5.65;;;9.00;99.90;;;;;;6192470;23;20028;-87
2022/03/30 01:16:32;;;;;;;16.48;6.78;;;9.00;99.90;;;;;;6245231;23;20087;-89
2022/03/30 01:19:08;;;;;;;8.73;5.93;;;9.00;99.90;;;;;;6245003;23;20016;-88
2022/03/30 01:21:38;;;;;;;12.48;6.13;;;9.00;99.90;;;;;;6218992;23;20048;-88
2022/03/30 01:24:08;;;;;;;13.48;5.65;;;9.00;99.90;;;;;;6218003;23;20339;-89
2022/03/30 01:26:36;;;;;;;12.43;6.07;;;9.00;99.90;;;;;;6244907;23;20039;-88
2022/03/30 01:32:25;;;;;;;10.82;6.03;;;9.00;99.90;;;;;;6219103;23;20016;-88
2022/03/30 01:34:41;;;;;;;13.88;6.70;;;9.00;99.90;;;;;;6217787;23;20035;-87
2022/03/30 01:37:10;;;;;;;8.85;5.20;;;9.00;99.90;;;;;;6193403;23;20058;-86
2022/03/30 01:39:41;;;;;;;11.00;5.57;;;8.90;99.90;;;;;;6193080;23;20022;-88
2022/03/30 01:42:09;;;;;;;13.82;6.28;;;9.00;99.90;;;;;;6244756;23;20020;-89
2022/03/30 01:44:37;;;;;;;12.02;6.60;;;8.90;99.90;;;;;;6245013;23;20596;-86
2022/03/30 01:47:10;;;;;;;11.30;6.10;;;8.90;99.90;;;;;;6193553;23;20016;-87
2022/03/30 01:49:41;;;;;;;13.55;6.80;;;8.90;99.90;;;;;;6219016;23;20032;-88
2022/03/30 01:52:08;;;;;;;19.60;7.60;;;8.90;99.90;;;;;;6193101;23;20028;-88
2022/03/30 01:54:39;;;;;;;19.15;7.18;;;8.80;99.90;;;;;;6193377;23;20031;-88
2022/03/30 01:57:07;;;;;;;14.52;5.97;;;8.80;99.90;;;;;;6217557;23;20024;-88
2022/03/30 01:59:37;;;;;;;12.13;5.43;;;8.60;99.90;;;;;;6217892;23;20024;-88
2022/03/30 02:02:05;;;;;;;12.30;5.70;;;8.60;99.90;;;;;;6217473;23;20020;-88
2022/03/30 02:04:38;;;;;;;13.73;6.03;;;8.70;99.90;;;;;;6219243;23;20016;-88
2022/03/30 02:07:10;;;;;;;12.18;5.18;;;8.70;99.90;;;;;;6245087;23;20016;-88
2022/03/30 02:09:38;;;;;;;10.88;4.97;;;8.70;99.90;;;;;;6192467;23;20021;-87
2022/03/30 02:12:07;;;;;;;8.50;4.22;;;8.50;99.90;;;;;;6244304;23;20043;-86
2022/03/30 02:14:34;;;;;;;6.93;3.70;;;8.40;99.90;;;;;;6244476;23;20095;-89
2022/03/30 02:17:03;;;;;;;8.52;3.58;;;8.40;99.90;;;;;;6217910;23;20023;-86
2022/03/30 02:19:30;;;;;;;10.38;3.28;;;8.50;99.90;;;;;;6192120;23;20028;-86
2022/03/30 02:21:58;;;;;;;5.38;3.33;;;8.50;99.90;;;;;;6217670;23;20074;-86
2022/03/30 02:24:31;;;;;;;7.07;3.72;;;8.50;99.90;;;;;;6244520;23;20070;-88
2022/03/30 02:26:58;;;;;;;6.55;3.30;;;8.50;99.90;;;;;;6217294;23;20020;-87
2022/03/30 02:29:25;;;;;;;5.18;3.25;;;8.50;99.90;;;;;;6243825;23;20055;-87
2022/03/30 02:31:57;;;;;;;7.72;3.33;;;8.50;99.90;;;;;;6244382;23;20062;-88
2022/03/30 02:34:26;;;;;;;8.75;3.67;;;8.50;99.90;;;;;;6192761;23;20051;-88
2022/03/30 02:36:53;;;;;;;8.20;3.60;;;8.50;99.90;;;;;;6217697;23;20017;-87
2022/03/30 02:39:23;;;;;;;10.65;3.10;;;8.50;99.90;;;;;;6243912;23;20036;-87
2022/03/30 02:41:51;;;;;;;6.90;3.10;;;8.40;99.90;;;;;;6244224;23;20095;-85
2022/03/30 02:44:21;;;;;;;4.90;3.20;;;8.30;99.90;;;;;;6192650;23;20099;-87
2022/03/30 02:46:51;;;;;;;5.82;2.47;;;8.40;99.90;;;;;;6217633;23;20020;-88
2022/03/30 02:49:21;;;;;;;4.80;2.30;;;8.30;99.90;;;;;;6217788;23;20017;-87
2022/03/30 02:51:49;;;;;;;4.28;2.33;;;8.30;99.90;;;;;;6217162;23;20038;-87
2022/03/30 02:54:18;;;;;;;2.78;1.80;;;8.40;99.90;;;;;;6218058;23;20022;-87
2022/03/30 02:56:46;;;;;;;3.67;2.20;;;8.30;99.90;;;;;;6192345;23;20067;-88
2022/03/30 02:59:14;;;;;;;6.25;1.63;;;8.30;99.90;;;;;;6192837;23;20024;-88
2022/03/30 03:01:41;;;;;;;5.68;1.58;;;8.40;99.90;;;;;;6244216;23;20020;-88
2022/03/30 03:04:12;;;;;;;5.47;1.63;;;8.40;99.90;;;;;;6217623;23;20036;-87
2022/03/30 03:06:40;;;;;;;4.60;1.48;;;8.20;99.90;;;;;;6217310;23;20052;-87
2022/03/30 03:09:09;;;;;;;5.13;1.75;;;8.10;99.90;;;;;;6217956;23;20390;-87
2022/03/30 03:11:40;;;;;;;8.90;1.50;;;8.30;99.90;;;;;;6192998;23;20343;-86
2022/03/30 03:14:10;;;;;;;4.95;1.58;;;8.30;99.90;;;;;;6192989;23;20351;-87
2022/03/30 03:16:37;;;;;;;5.20;1.50;;;8.30;99.90;;;;;;6192801;23;20024;-87
2022/03/30 03:19:08;;;;;;;2.88;1.00;;;8.30;99.90;;;;;;6192114;23;20470;-88
2022/03/30 03:21:35;;;;;;;7.38;1.23;;;8.10;99.90;;;;;;6244016;23;20020;-87
2022/03/30 03:24:02;;;;;;;2.30;1.20;;;8.10;99.90;;;;;;6192230;23;20023;-89
2022/03/30 03:26:29;;;;;;;5.00;1.13;;;8.20;99.90;;;;;;6217895;23;20019;-88
2022/03/30 03:29:00;;;;;;;6.78;1.08;;;8.10;99.90;;;;;;6192286;23;20016;-87
2022/03/30 03:31:28;;;;;;;2.00;0.98;;;8.20;99.90;;;;;;6217034;23;20028;-87
2022/03/30 03:33:57;;;;;;;2.95;1.35;;;8.20;99.90;;;;;;6244081;23;20067;-88
2022/03/30 03:36:26;;;;;;;2.03;1.38;;;8.20;99.90;;;;;;6217867;23;20070;-88
2022/03/30 03:38:54;;;;;;;1.90;0.80;;;8.00;99.90;;;;;;6217701;23;20020;-88
2022/03/30 03:41:24;;;;;;;2.00;0.90;;;8.00;99.90;;;;;;6192391;23;20024;-87
2022/03/30 03:43:51;;;;;;;2.70;0.90;;;8.10;99.90;;;;;;6216994;23;20348;-87
2022/03/30 03:46:22;;;;;;;2.75;1.02;;;8.10;99.90;;;;;;6218244;23;20625;-87
2022/03/30 03:48:52;;;;;;;1.77;0.75;;;8.00;99.90;;;;;;6218323;23;20039;-88
2022/03/30 03:51:23;;;;;;;3.05;0.80;;;7.90;99.90;;;;;;6217959;23;20398;-88
2022/03/30 03:53:50;;;;;;;2.58;0.88;;;8.00;99.90;;;;;;6217317;23;20024;-88
2022/03/30 03:56:18;;;;;;;1.80;0.60;;;8.10;99.90;;;;;;6217066;23;20027;-88
2022/03/30 03:58:45;;;;;;;1.27;0.80;;;7.80;99.90;;;;;;6192282;23;20059;-87
2022/03/30 04:01:12;;;;;;;4.28;1.23;;;7.80;99.90;;;;;;6216450;23;20020;-88
2022/03/30 04:03:42;;;;;;;3.17;0.88;;;7.80;99.90;;;;;;6243536;23;20428;-87
2022/03/30 04:06:09;;;;;;;1.13;0.60;;;7.90;99.90;;;;;;6216418;23;20020;-87
2022/03/30 04:08:37;;;;;;;1.42;0.75;;;8.00;99.90;;;;;;6190713;23;20027;-88
2022/03/30 04:11:05;;;;;;;2.13;0.60;;;8.00;99.90;;;;;;6216877;23;20371;-87
2022/03/30 04:13:36;;;;;;;1.70;0.60;;;7.70;99.90;;;;;;6217635;23;20032;-86
2022/03/30 04:16:03;;;;;;;1.67;0.55;;;8.00;99.90;;;;;;6217966;23;20017;-86
2022/03/30 04:18:31;;;;;;;1.77;0.73;;;8.00;99.90;;;;;;6193733;23;20510;-88
2022/03/30 04:20:58;;;;;;;1.58;0.65;;;7.90;99.90;;;;;;6217937;23;20035;-86
2022/03/30 04:23:25;;;;;;;0.70;0.40;;;8.00;99.90;;;;;;6218270;23;20016;-87
2022/03/30 04:25:52;;;;;;;0.88;0.38;;;8.10;99.90;;;;;;6218898;23;20039;-88
2022/03/30 04:28:19;;;;;;;1.33;0.45;;;8.00;99.90;;;;;;6193272;23;20012;-87
2022/03/30 04:30:48;;;;;;;1.38;0.70;;;8.10;99.90;;;;;;6244991;23;20016;-87
2022/03/30 04:33:16;;;;;;;3.13;0.63;;;8.00;99.90;;;;;;6219513;23;20047;-88
2022/03/30 04:35:46;;;;;;;1.52;0.68;;;7.90;99.90;;;;;;6219125;23;20016;-88
2022/03/30 04:38:14;;;;;;;1.00;0.57;;;8.00;99.90;;;;;;6246143;23;20012;-87
2022/03/30 04:40:41;;;;;;;0.50;0.40;;;8.00;99.90;;;;;;6245631;23;20390;-88
2022/03/30 04:43:09;;;;;;;0.70;0.30;;;7.90;99.90;;;;;;6219649;23;20430;-86
2022/03/30 04:45:37;;;;;;;1.65;0.40;;;7.80;99.90;;;;;;6194457;23;20099;-87
2022/03/30 04:48:04;;;;;;;2.83;0.47;;;7.80;99.90;;;;;;6219167;23;20047;-87
2022/03/30 04:50:32;;;;;;;1.23;0.40;;;7.90;99.90;;;;;;6245569;23;20062;-86
2022/03/30 04:53:03;;;;;;;2.33;0.52;;;7.90;99.90;;;;;;6193567;23;20019;-87
2022/03/30 04:55:31;;;;;;;2.38;0.52;;;7.80;99.90;;;;;;6193562;23;20020;-86
2022/03/30 04:57:58;;;;;;;2.40;0.80;;;7.70;99.90;;;;;;6218834;23;20447;-87
2022/03/30 05:00:25;;;;;;;1.00;0.30;;;7.80;99.90;;;;;;6218517;23;20016;-87
2022/03/30 05:02:57;;;;;;;2.95;0.47;;;8.00;99.90;;;;;;6218724;23;20027;-87
2022/03/30 05:05:27;;;;;;;0.95;0.30;;;7.90;99.90;;;;;;6245373;23;20016;-86
2022/03/30 05:07:57;;;;;;;1.00;0.40;;;7.90;99.90;;;;;;6193413;23;20451;-86
2022/03/30 05:10:24;;;;;;;1.23;0.47;;;7.80;99.90;;;;;;6218153;23;20027;-88
2022/03/30 05:12:54;;;;;;;0.70;0.32;;;7.80;99.90;;;;;;6219346;23;20016;-87
2022/03/30 05:15:23;;;;;;;1.17;0.40;;;7.70;99.90;;;;;;6193560;23;20020;-88
2022/03/30 05:17:50;;;;;;;2.50;0.95;;;7.70;99.90;;;;;;6245399;23;20024;-87
2022/03/30 05:20:17;;;;;;;2.45;0.30;;;7.80;99.90;;;;;;6193529;23;20103;-87
2022/03/30 05:22:44;;;;;;;3.53;0.70;;;7.90;99.90;;;;;;6192847;23;20078;-88
2022/03/30 05:25:19;;;;;;;3.17;0.50;;;7.90;99.90;;;;;;6245484;23;20016;-87
2022/03/30 05:27:47;;;;;;;0.95;0.30;;;7.80;99.90;;;;;;6217783;23;20016;-88
2022/03/30 05:30:16;;;;;;;0.95;0.40;;;7.80;99.90;;;;;;6190413;23;20102;-88
2022/03/30 05:32:48;;;;;;;3.35;0.63;;;7.90;99.90;;;;;;6189483;23;20087;-87
2022/03/30 05:35:15;;;;;;;1.23;0.30;;;7.70;99.90;;;;;;6217941;23;20470;-86
2022/03/30 05:37:49;;;;;;;2.05;0.40;;;7.80;99.90;;;;;;6192962;23;20016;-88
2022/03/30 05:40:16;;;;;;;3.30;0.38;;;7.70;99.90;;;;;;6192703;23;20024;-86
2022/03/30 05:42:44;;;;;;;1.88;0.40;;;7.50;99.90;;;;;;6193254;23;20451;-87
2022/03/30 05:45:13;;;;;;;3.38;0.38;;;7.70;99.90;;;;;;6194009;23;20355;-87
2022/03/30 05:47:43;;;;;;;1.60;0.70;;;7.60;99.90;;;;;;6218934;23;20026;-87
2022/03/30 05:50:12;;;;;;;1.02;0.30;;;7.50;99.90;;;;;;6244589;23;20040;-88
2022/03/30 05:52:40;;;;;;;2.00;0.40;;;7.40;99.90;;;;;;6218638;23;20091;-86
2022/03/30 05:55:11;;;;;;;1.17;0.32;;;7.20;99.90;;;;;;6245186;23;20016;-87
2022/03/30 05:57:38;;;;;;;0.30;0.10;;;7.40;99.90;;;;;;6244914;23;20510;-87
2022/03/30 06:00:10;;;;;;;2.47;0.55;;;7.40;99.90;;;;;;6217822;23;20054;-87
2022/03/30 06:02:42;;;;;;;2.15;0.57;;;7.10;99.90;;;;;;6219012;23;20023;-87
2022/03/30 06:05:10;;;;;;;5.57;0.43;;;7.30;99.90;;;;;;6217835;23;20098;-86
2022/03/30 06:07:38;;;;;;;2.42;0.43;;;7.10;99.90;;;;;;6244764;23;20062;-86
2022/03/30 06:10:09;;;;;;;0.50;0.20;;;7.40;99.90;;;;;;6217984;23;20073;-87
2022/03/30 06:12:36;;;;;;;0.90;0.35;;;7.50;99.90;;;;;;6193342;23;20067;-88
2022/03/30 06:15:05;;;;;;;1.67;0.55;;;7.60;99.90;;;;;;6216828;23;20458;-87
2022/03/30 06:17:34;;;;;;;1.25;0.30;;;7.60;99.90;;;;;;6218832;23;20027;-88
2022/03/30 06:20:07;;;;;;;2.20;0.50;;;7.30;99.90;;;;;;6193389;23;20031;-86
2022/03/30 06:22:36;;;;;;;2.45;0.60;;;7.30;99.90;;;;;;6244800;23;20020;-87
2022/03/30 06:25:09;;;;;;;3.03;0.85;;;7.40;99.90;;;;;;6218602;23;20115;-87
2022/03/30 06:27:41;;;;;;;3.08;0.80;;;7.50;99.90;;;;;;6218003;23;20020;-86
2022/03/30 06:30:12;;;;;;;2.60;0.40;;;7.40;99.90;;;;;;6244149;23;20016;-87
2022/03/30 06:32:43;;;;;;;2.13;0.45;;;7.40;99.90;;;;;;6244813;23;20024;-86
2022/03/30 06:35:10;;;;;;;2.15;0.30;;;7.40;99.90;;;;;;6217676;23;20085;-86
2022/03/30 06:37:40;;;;;;;5.65;0.63;;;7.30;99.90;;;;;;6192663;23;20451;-86
2022/03/30 06:40:08;;;;;;;3.78;0.70;;;7.20;99.90;;;;;;6191902;23;20031;-87
2022/03/30 06:42:37;;;;;;;1.83;0.50;;;7.30;99.90;;;;;;6244796;23;20392;-87
2022/03/30 06:45:07;;;;;;;1.52;0.52;;;7.30;99.90;;;;;;6217579;23;20226;-88
2022/03/30 06:47:37;;;;;;;4.22;0.60;;;7.40;99.90;;;;;;6217561;23;20020;-87
2022/03/30 06:50:06;;;;;;;1.67;0.52;;;7.50;99.90;;;;;;6244286;23;20016;-88
2022/03/30 06:52:35;;;;;;;2.03;0.70;;;7.60;99.90;;;;;;6217233;23;20026;-87
2022/03/30 06:55:05;;;;;;;0.93;0.47;;;7.60;99.90;;;;;;6217684;23;20031;-87
2022/03/30 06:57:36;;;;;;;1.42;0.40;;;7.40;99.90;;;;;;6217524;23;20049;-86
2022/03/30 07:00:06;;;;;;;2.15;0.70;;;7.50;99.90;;;;;;6217648;23;20036;-86
2022/03/30 07:02:33;;;;;;;5.82;0.65;;;7.60;99.90;;;;;;6217025;23;20111;-88
2022/03/30 07:05:03;;;;;;;3.60;0.45;;;7.70;99.90;;;;;;6244497;23;20016;-88
2022/03/30 07:10:17;;;;;;;1.75;0.38;;;7.60;99.90;;;;;;6219509;23;20027;-87
2022/03/30 07:12:47;;;;;;;2.38;0.40;;;7.60;99.90;;;;;;6217644;23;20024;-87
2022/03/30 07:15:18;;;;;;;3.72;0.40;;;7.40;99.90;;;;;;6244192;23;20436;-86
2022/03/30 07:17:48;;;;;;;6.22;0.63;;;7.80;99.90;;;;;;6193008;23;20660;-87
2022/03/30 07:20:19;;;;;;;3.22;0.65;;;7.80;99.90;;;;;;6218130;23;20012;-87
2022/03/30 07:22:51;;;;;;;7.03;0.40;;;7.80;99.90;;;;;;6195526;23;20030;-87
2022/03/30 07:25:22;;;;;;;1.42;0.30;;;7.80;99.90;;;;;;6193095;23;20043;-88
2022/03/30 07:27:54;;;;;;;1.55;0.55;;;7.80;99.90;;;;;;6192964;23;20023;-88
2022/03/30 07:30:24;;;;;;;0.50;0.20;;;7.80;99.90;;;;;;6193070;23;20016;-88
2022/03/30 07:32:57;;;;;;;4.97;1.02;;;7.60;99.90;;;;;;6244074;23;20087;-89
2022/03/30 07:35:28;;;;;;;1.40;0.20;;;7.80;99.90;;;;;;6217265;23;20020;-87
2022/03/30 07:37:56;;;;;;;0.63;0.17;;;7.90;99.90;;;;;;6244038;23;20012;-88
2022/03/30 07:40:24;;;;;;;2.58;0.32;;;7.80;99.90;;;;;;6192587;23;20020;-87
2022/03/30 07:42:54;;;;;;;4.43;0.80;;;7.80;99.90;;;;;;6244376;23;20102;-88
2022/03/30 07:45:23;;;;;;;1.25;0.40;;;7.90;99.90;;;;;;6216961;23;20478;-89
2022/03/30 07:47:50;;;;;;;0.60;0.40;;;7.60;99.90;;;;;;6192386;23;20075;-88
2022/03/30 07:50:23;;;;;;;1.52;0.30;;;7.50;99.90;;;;;;6244627;23;20443;-88
2022/03/30 07:52:52;;;;;;;2.38;0.22;;;7.50;99.90;;;;;;6194489;23;20024;-88
2022/03/30 07:55:22;;;;;;;2.83;1.02;;;7.50;99.90;;;;;;6246051;23;20032;-89
2022/03/30 07:57:56;;;;;;;1.70;0.50;;;7.40;99.90;;;;;;6220972;23;20702;-89
2022/03/30 08:00:27;;;;;;;1.00;0.30;;;7.60;99.90;;;;;;6218695;23;20044;-88
2022/03/30 08:03:03;;;;;;;6.03;1.10;;;7.70;99.90;;;;;;6219538;23;20103;-88
2022/03/30 08:05:32;;;;;;;2.00;0.70;;;7.70;99.90;;;;;;6219302;23;20099;-88
2022/03/30 08:08:01;;;;;;;1.10;0.22;;;7.80;99.90;;;;;;6218792;23;20597;-88
2022/03/30 08:10:29;;;;;;;4.82;0.60;;;8.00;99.90;;;;;;6219234;23;20625;-88
2022/03/30 08:12:58;;;;;;;3.17;0.40;;;8.00;99.90;;;;;;6219054;23;20078;-89
2022/03/30 08:15:28;;;;;;;2.25;0.20;;;8.00;99.90;;;;;;6196267;23;20074;-88
2022/03/30 08:17:55;;;;;;;1.48;0.17;;;8.00;99.90;;;;;;6246596;23;20031;-88
2022/03/30 08:23:13;;;;;;;2.63;0.35;;;8.00;99.90;;;;;;6244921;23;20024;-88
2022/03/30 08:25:48;;;;;;;5.05;0.60;;;8.00;99.90;;;;;;6220526;23;20073;-88
2022/03/30 08:28:20;;;;;;;2.00;0.25;;;8.00;99.90;;;;;;6194647;23;20012;-89
2022/03/30 08:30:48;;;;;;;2.95;0.60;;;8.20;99.90;;;;;;6218709;23;20103;-88
2022/03/30 08:33:23;;;;;;;2.80;0.73;;;8.10;99.90;;;;;;6244015;23;20110;-87
2022/03/30 08:35:51;;;;;;;2.22;0.60;;;8.00;99.90;;;;;;6219245;23;20099;-87
2022/03/30 08:38:18;;;;;;;1.85;0.45;;;8.10;99.90;;;;;;6218712;23;20070;-88
2022/03/30 08:40:51;;;;;;;0.52;0.28;;;8.10;99.90;;;;;;6219543;23;20083;-88
2022/03/30 08:43:22;;;;;;;3.25;0.70;;;8.40;99.90;;;;;;6218753;23;20028;-87
2022/03/30 08:45:55;;;;;;;3.50;0.47;;;8.30;99.90;;;;;;6219603;23;20052;-87
2022/03/30 08:48:25;;;;;;;1.15;0.45;;;8.40;99.90;;;;;;6219384;23;20012;-88
2022/03/30 08:50:58;;;;;;;0.80;0.52;;;8.10;99.90;;;;;;6245243;23;20020;-88
2022/03/30 08:53:28;;;;;;;1.73;0.32;;;8.10;99.90;;;;;;6194204;23;20514;-89
2022/03/30 08:56:01;;;;;;;9.57;1.45;;;8.30;99.90;;;;;;6218548;23;20027;-89
2022/03/30 08:58:34;;;;;;;1.13;0.40;;;8.30;99.90;;;;;;6218279;23;20024;-89
2022/03/30 09:01:16;;;;;;;1.25;0.52;;;8.20;99.90;;;;;;6219015;23;20028;-88
2022/03/30 09:03:58;;;;;;;6.55;0.70;;;8.00;99.90;;;;;;6218775;23;20020;-88
2022/03/30 09:06:33;;;;;;;2.25;1.00;;;8.10;99.90;;;;;;6217009;23;20039;-87
2022/03/30 09:09:03;;;;;;;5.47;0.40;;;8.20;99.90;;;;;;6194069;23;20020;-89
2022/03/30 09:11:45;;;;;;;2.08;0.52;;;8.50;99.90;;;;;;6245663;23;20062;-89
2022/03/30 09:14:19;;;;;;;2.85;0.60;;;8.40;99.90;;;;;;6218083;23;20022;-88
2022/03/30 09:17:08;;;;;;;2.17;0.40;;;8.50;99.90;;;;;;6195970;23;20028;-89
2022/03/30 09:19:39;;;;;;;3.15;0.43;;;8.20;99.90;;;;;;6244982;23;20194;-88
2022/03/30 09:22:10;;;;;;;2.00;0.43;;;8.50;99.90;;;;;;6218134;23;20012;-88
2022/03/30 09:24:45;;;;;;;6.22;1.00;;;8.60;99.90;;;;;;6194088;23;20093;-87
2022/03/30 09:27:22;;;;;;;0.95;0.40;;;8.30;99.90;;;;;;6195158;23;20039;-88
2022/03/30 09:29:55;;;;;;;3.10;0.77;;;8.50;99.90;;;;;;6245026;23;20016;-89
2022/03/30 09:32:35;;;;;;;3.38;0.50;;;8.40;99.90;;;;;;6244731;23;20042;-88
2022/03/30 09:35:16;;;;;;;4.05;0.95;;;8.60;99.90;;;;;;6193621;23;20451;-88
2022/03/30 09:37:58;;;;;;;3.45;0.88;;;8.70;99.90;;;;;;6245032;23;20024;-88
2022/03/30 09:40:38;;;;;;;2.45;0.40;;;8.70;99.90;;;;;;6243460;23;20463;-88
2022/03/30 09:43:21;;;;;;;1.95;0.28;;;8.70;99.90;;;;;;6193798;23;20024;-88
2022/03/30 09:46:09;;;;;;;2.67;0.40;;;8.80;84.00;;;;;;6217955;23;20032;-88
2022/03/30 09:48:52;;;;;;;1.52;0.50;;;8.50;78.90;;;;;;6243348;23;20050;-89
2022/03/30 09:51:39;;;;;;;2.25;0.22;;;8.60;99.90;;;;;;6244798;23;20020;-88
2022/03/30 09:54:11;;;;;;;2.42;0.40;;;9.00;99.90;;;;;;6218387;23;20028;-88
2022/03/30 09:56:55;;;;;;;3.55;0.88;;;9.00;97.40;;;;;;6196231;23;20104;-88
2022/03/30 09:59:54;;;;;;;3.40;0.30;;;8.90;75.60;;;;;;6218397;23;20016;-88
2022/03/30 10:02:27;;;;;;;4.90;0.90;;;9.10;93.40;;;;;;6244956;23;20077;-87
2022/03/30 10:05:06;;;;;;;1.87;0.50;;;8.90;49.10;;;;;;6245204;23;20091;-88
2022/03/30 10:07:42;;;;;;;4.13;1.20;;;9.00;74.20;;;;;;6193869;23;20016;-88
2022/03/30 10:10:21;;;;;;;4.95;0.70;;;8.90;59.20;;;;;;6217755;23;20339;-88
2022/03/30 10:12:56;;;;;;;1.10;0.50;;;9.10;93.50;;;;;;6245243;23;20104;-88
2022/03/30 10:15:33;;;;;;;3.92;0.80;;;9.30;99.90;;;;;;6217160;23;20020;-89
2022/03/30 10:18:09;;;;;;;3.72;0.80;;;9.20;57.90;;;;;;6171284;23;20235;-88
2022/03/30 10:21:15;;;;;;;5.93;3.00;;;8.90;52.60;;;;;;6195857;23;20663;-88
2022/03/30 10:24:05;;;;;;;7.43;0.85;;;8.70;51.40;;;;;;6217823;23;20016;-89
2022/03/30 10:27:12;;;;;;;2.30;0.77;;;8.90;98.10;;;;;;6200283;23;20016;-89
2022/03/30 10:29:51;;;;;;;2.60;0.80;;;9.20;96.50;;;;;;6217889;23;20020;-89
2022/03/30 10:32:34;;;;;;;2.38;0.80;;;9.50;92.40;;;;;;6245055;23;20351;-88
2022/03/30 10:35:12;;;;;;;5.28;0.75;;;9.60;96.60;;;;;;6219350;23;20040;-88
2022/03/30 10:38:01;;;;;;;6.22;0.55;;;9.60;99.90;;;;;;6244833;23;20047;-89
2022/03/30 10:40:42;;;;;;;1.92;0.55;;;9.40;62.50;;;;;;6219327;23;20024;-88
2022/03/30 10:43:25;;;;;;;9.80;1.27;;;9.30;98.30;;;;;;6244253;23;20024;-89
2022/03/30 10:46:04;;;;;;;5.03;0.80;;;9.60;74.70;;;;;;6217814;23;20043;-87
2022/03/30 10:48:54;;;;;;;3.05;0.60;;;9.50;98.30;;;;;;6218311;23;20095;-88
2022/03/30 10:51:36;;;;;;;2.13;1.02;;;9.60;91.60;;;;;;6194545;23;20031;-89
2022/03/30 10:54:35;;;;;;;3.38;1.23;;;9.20;91.90;;;;;;6217291;23;20107;-89
2022/03/30 10:57:53;;;;;;;4.45;0.57;;;8.80;80.60;;;;;;6195866;23;20024;-88
2022/03/30 11:00:31;;;;;;;7.43;1.10;;;8.80;74.00;;;;;;6218349;23;20055;-87
2022/03/30 11:03:21;;;;;;;4.63;0.85;;;8.70;74.50;;;;;;6195337;23;20024;-89
2022/03/30 11:06:08;;;;;;;5.00;1.05;;;9.00;98.20;;;;;;6218724;23;20016;-89
2022/03/30 11:08:45;;;;;;;4.05;1.10;;;9.50;99.90;;;;;;6217517;23;20051;-90
2022/03/30 11:11:34;;;;;;;5.25;0.60;;;9.40;61.00;;;;;;6218903;23;20095;-88
2022/03/30 11:14:40;;;;;;;2.50;1.02;;;9.80;91.00;;;;;;6194994;23;20016;-89
2022/03/30 11:17:16;;;;;;;5.20;0.85;;;10.00;82.60;;;;;;6196672;23;20020;-90
2022/03/30 11:20:16;;;;;;;2.63;0.50;;;9.70;59.60;;;;;;6245702;23;20016;-88
2022/03/30 11:22:54;;;;;;;3.90;0.40;;;9.40;42.90;;;;;;6245796;23;20012;-88
2022/03/30 11:25:56;;;;;;;4.22;0.88;;;9.20;39.70;;;;;;6218648;23;20016;-88
2022/03/30 11:28:40;;;;;;;5.13;0.73;;;9.50;47.50;;;;;;6199220;23;20016;-88
2022/03/30 11:31:49;;;;;;;4.65;0.30;;;9.70;55.40;;;;;;6244656;23;20016;-87
2022/03/30 11:34:52;;;;;;;3.00;0.40;;;9.20;19.40;;;;;;6177940;23;20111;-88
2022/03/30 11:37:40;;;;;;;2.65;0.85;;;9.30;54.20;;;;;;6245625;23;20014;-89
2022/03/30 11:40:45;;;;;;;1.52;0.55;;;9.40;55.80;;;;;;6224101;23;20024;-88
2022/03/30 11:43:23;;;;;;;3.30;0.60;;;9.60;34.00;;;;;;6192396;23;20055;-88
2022/03/30 11:46:18;;;;;;;;;;;;;;;;;;;;;
2022/03/30 11:49:25;;;;;;;2.17;0.55;;;9.50;7.50;;;;;;6218201;23;20028;-88
2022/03/30 11:52:30;;;;;;;3.17;0.32;;;9.70;30.60;;;;;;6244424;23;20083;-87
2022/03/30 11:56:08;;;;;;;2.00;0.93;;;10.00;20.70;;;;;;6217348;23;20024;-90
2022/03/30 11:58:58;;;;;;;3.85;0.63;;;9.90;1.00;;;;;;6195524;23;20020;-89
2022/03/30 12:01:50;;;;;;;0.38;0.15;;;9.70;1.00;;;;;;6194139;23;20103;-88
2022/03/30 12:05:09;;;;;;;;;;;;;;;;;;;;;
2022/03/30 12:08:23;;;;;;;1.45;0.50;;;9.50;1.00;;;;;;6207306;23;20016;-87
2022/03/30 12:14:15;;;;;;;5.43;1.00;;;9.40;12.50;;;;;;6206888;23;20024;-88
2022/03/30 12:17:14;;;;;;;3.17;0.52;;;9.60;1.00;;;;;;6195124;23;20111;-88
2022/03/30 12:20:33;;;;;;;1.75;0.38;;;9.50;1.00;;;;;;6193156;23;20020;-87
2022/03/30 12:23:40;;;;;;;3.92;0.73;;;9.20;1.00;;;;;;6194850;23;20074;-87
2022/03/30 12:27:07;;;;;;;0.50;0.20;;;9.40;1.00;;;;;;6223942;23;20016;-88
2022/03/30 12:29:46;;;;;;;0.98;0.30;;;10.00;1.00;;;;;;6173271;23;20016;-87
2022/03/30 12:32:58;;;;;;;1.48;0.35;;;10.10;1.00;;;;;;6241610;23;20474;-87
2022/03/30 12:35:42;;;;;;;1.70;0.65;;;10.10;1.00;;;;;;6193846;23;20016;-87
2022/03/30 12:38:31;;;;;;;2.33;0.57;;;9.50;1.00;;;;;;6195352;23;20017;-87
2022/03/30 12:41:32;;;;;;;2.15;0.70;;;9.00;1.00;;;;;;6218879;23;20024;-88
2022/03/30 12:48:10;;;;;;;2.10;0.40;;;9.20;1.00;;;;;;6242263;23;20102;-88
2022/03/30 12:50:58;;;;;;;1.63;0.50;;;9.60;1.00;;;;;;6175283;23;20021;-88
2022/03/30 12:54:01;;;;;;;0.65;0.30;;;10.50;1.00;;;;;;6180159;23;20037;-89
2022/03/30 12:57:28;;;;;;;2.67;0.70;;;10.60;1.00;;;;;;6163971;23;20697;-88
2022/03/30 13:00:26;;;;;;;0.55;0.35;;;10.40;1.00;;;;;;6154499;23;20341;-88
2022/03/30 13:03:35;;;;;;;4.40;0.55;;;10.20;1.00;;;;;;6176902;23;20021;-90
2022/03/30 13:06:34;;;;;;;3.25;0.60;;;9.70;1.00;;;;;;6120189;23;20424;-89
2022/03/30 13:09:20;;;;;;;1.40;0.90;;;10.30;1.00;;;;;;6133527;23;20036;-88
2022/03/30 13:11:49;;;;;;;3.78;0.45;;;10.20;1.00;;;;;;6182260;23;20013;-88
2022/03/30 13:14:33;;;;;;;4.18;1.08;;;9.30;1.00;;;;;;6157224;23;20071;-89
2022/03/30 13:17:42;;;;;;;1.17;0.20;;;9.60;1.00;;;;;;6135071;23;20108;-87
2022/03/30 13:20:40;;;;;;;1.58;0.38;;;9.80;1.00;;;;;;6133750;23;20061;-87
2022/03/30 13:27:10;;;;;;;2.05;0.93;;;9.80;1.00;;;;;;6142951;23;20021;-88
2022/03/30 13:30:24;;;;;;;4.63;0.40;;;10.10;1.00;;;;;;6224191;23;20099;-89
2022/03/30 13:33:31;;;;;;;3.35;0.40;;;9.80;1.00;;;;;;6193980;23;20023;-89
2022/03/30 13:36:32;;;;;;;2.95;0.32;;;9.50;1.00;;;;;;6195868;23;20031;-88
2022/03/30 13:39:29;;;;;;;3.53;0.40;;;9.00;1.00;;;;;;6217144;23;20024;-89
2022/03/30 13:42:30;;;;;;;1.45;0.45;;;9.40;1.00;;;;;;6221273;23;20046;-88
2022/03/30 13:45:30;;;;;;;5.47;0.60;;;9.30;1.00;;;;;;6215707;23;20028;-89
2022/03/30 13:48:54;;;;;;;3.92;1.33;;;9.20;1.00;;;;;;6225368;23;20038;-89
2022/03/30 13:52:17;;;;;;;;;;;;;;;;;;;;;
2022/03/30 13:55:31;;;;;;;2.58;0.57;;;9.60;1.00;;;;;;6217874;23;20325;-89
2022/03/30 13:58:37;;;;;;;2.75;0.47;;;9.80;1.00;;;;;;6242875;23;20103;-88
2022/03/30 14:01:49;;;;;;;4.03;1.20;;;9.40;1.00;;;;;;6194957;23;20040;-88
2022/03/30 14:05:20;;;;;;;1.83;0.32;;;9.40;1.00;;;;;;6198385;23;20320;-88
2022/03/30 14:08:49;;;;;;;;;;;;;;;;;;;;;
2022/03/30 14:11:32;;;;;;;4.97;0.70;;;9.70;1.00;;;;;;6218161;23;20020;-88